sensor_id;sensor_type;location;lat;lon;timestamp;P1;durP1;ratioP1;P2;durP2;ratioP2
10041;SDS011;5061;49.068;12.058;2022-11-15T00:02:16;8.53;;;5.70;;
10041;SDS011;5061;49.068;12.058;2022-11-15T00:05:37;7.57;;;5.30;;
10041;SDS011;5061;49.068;12.058;2022-11-15T00:08:58;9.70;;;5.77;;
10041;SDS011;5061;49.068;12.058;2022-11-15T00:12:19;9.97;;;4.67;;
10041;SDS011;5061;49.068;12.058;2022-11-15T00:15:40;7.57;;;4.90;;
10041;SDS011;5061;49.068;12.058;2022-11-15T00:19:01;5.40;;;3.80;;
10041;SDS011;5061;49.068;12.058;2022-11-15T00:22:22;6.60;;;4.43;;
10041;SDS011;5061;49.068;12.058;2022-11-15T00:25:43;7.70;;;3.97;;
10041;SDS011;5061;49.068;12.058;2022-11-15T00:29:03;6.07;;;4.50;;
10041;SDS011;5061;49.068;12.058;2022-11-15T00:32:24;6.33;;;4.47;;
10041;SDS011;5061;49.068;12.058;2022-11-15T00:35:44;8.87;;;4.67;;
10041;SDS011;5061;49.068;12.058;2022-11-15T00:39:05;8.10;;;4.97;;
10041;SDS011;5061;49.068;12.058;2022-11-15T00:42:26;6.83;;;4.70;;
10041;SDS011;5061;49.068;12.058;2022-11-15T00:45:46;8.30;;;4.93;;
10041;SDS011;5061;49.068;12.058;2022-11-15T00:49:07;6.47;;;4.87;;
10041;SDS011;5061;49.068;12.058;2022-11-15T00:52:27;7.03;;;4.20;;
10041;SDS011;5061;49.068;12.058;2022-11-15T00:55:48;5.10;;;4.13;;
10041;SDS011;5061;49.068;12.058;2022-11-15T00:59:09;6.57;;;4.33;;
10041;SDS011;5061;49.068;12.058;2022-11-15T01:02:29;6.53;;;4.07;;
10041;SDS011;5061;49.068;12.058;2022-11-15T01:05:50;6.40;;;4.50;;
10041;SDS011;5061;49.068;12.058;2022-11-15T01:09:10;6.20;;;4.37;;
10041;SDS011;5061;49.068;12.058;2022-11-15T01:12:31;6.73;;;4.10;;
10041;SDS011;5061;49.068;12.058;2022-11-15T01:15:52;7.40;;;4.50;;
10041;SDS011;5061;49.068;12.058;2022-11-15T01:19:13;6.20;;;4.90;;
10041;SDS011;5061;49.068;12.058;2022-11-15T01:22:33;6.57;;;4.60;;
10041;SDS011;5061;49.068;12.058;2022-11-15T01:25:58;8.20;;;5.43;;
10041;SDS011;5061;49.068;12.058;2022-11-15T01:29:19;6.17;;;4.67;;
10041;SDS011;5061;49.068;12.058;2022-11-15T01:32:40;7.13;;;4.70;;
10041;SDS011;5061;49.068;12.058;2022-11-15T01:36:03;6.73;;;4.90;;
10041;SDS011;5061;49.068;12.058;2022-11-15T01:39:25;7.10;;;4.40;;
10041;SDS011;5061;49.068;12.058;2022-11-15T01:42:46;6.60;;;4.70;;
10041;SDS011;5061;49.068;12.058;2022-11-15T01:53:17;10.90;;;6.73;;
10041;SDS011;5061;49.068;12.058;2022-11-15T01:56:42;9.10;;;6.30;;
10041;SDS011;5061;49.068;12.058;2022-11-15T02:00:06;10.97;;;6.90;;
10041;SDS011;5061;49.068;12.058;2022-11-15T02:03:31;8.83;;;6.33;;
10041;SDS011;5061;49.068;12.058;2022-11-15T02:06:59;11.60;;;7.10;;
10041;SDS011;5061;49.068;12.058;2022-11-15T02:10:23;7.97;;;5.87;;
10041;SDS011;5061;49.068;12.058;2022-11-15T02:13:44;9.27;;;5.70;;
10041;SDS011;5061;49.068;12.058;2022-11-15T02:31:23;6.27;;;4.63;;
10041;SDS011;5061;49.068;12.058;2022-11-15T02:35:04;5.73;;;4.00;;
10041;SDS011;5061;49.068;12.058;2022-11-15T02:38:54;5.13;;;3.83;;
10041;SDS011;5061;49.068;12.058;2022-11-15T02:42:32;7.40;;;4.70;;
10041;SDS011;5061;49.068;12.058;2022-11-15T02:46:18;6.90;;;4.93;;
10041;SDS011;5061;49.068;12.058;2022-11-15T02:50:09;7.80;;;5.13;;
10041;SDS011;5061;49.068;12.058;2022-11-15T02:53:31;9.30;;;5.53;;
10041;SDS011;5061;49.068;12.058;2022-11-15T02:56:53;8.97;;;6.40;;
10041;SDS011;5061;49.068;12.058;2022-11-15T03:00:16;10.17;;;5.90;;
10041;SDS011;5061;49.068;12.058;2022-11-15T03:07:02;12.13;;;7.70;;
10041;SDS011;5061;49.068;12.058;2022-11-15T03:14:23;7.03;;;5.00;;
10041;SDS011;5061;49.068;12.058;2022-11-15T03:21:13;10.40;;;6.13;;
10041;SDS011;5061;49.068;12.058;2022-11-15T03:24:36;9.33;;;6.13;;
10041;SDS011;5061;49.068;12.058;2022-11-15T03:27:58;8.77;;;5.60;;
10041;SDS011;5061;49.068;12.058;2022-11-15T03:31:25;7.20;;;4.90;;
10041;SDS011;5061;49.068;12.058;2022-11-15T03:35:09;5.57;;;4.20;;
10041;SDS011;5061;49.068;12.058;2022-11-15T03:38:33;4.00;;;2.97;;
10041;SDS011;5061;49.068;12.058;2022-11-15T03:46:39;5.60;;;3.50;;
10041;SDS011;5061;49.068;12.058;2022-11-15T03:50:04;7.20;;;4.30;;
10041;SDS011;5061;49.068;12.058;2022-11-15T03:53:30;7.10;;;4.67;;
10041;SDS011;5061;49.068;12.058;2022-11-15T03:56:51;9.57;;;5.87;;
10041;SDS011;5061;49.068;12.058;2022-11-15T04:00:12;13.13;;;6.37;;
10041;SDS011;5061;49.068;12.058;2022-11-15T04:03:33;7.23;;;4.90;;
10041;SDS011;5061;49.068;12.058;2022-11-15T04:06:53;8.83;;;5.37;;
10041;SDS011;5061;49.068;12.058;2022-11-15T04:10:14;9.50;;;5.70;;
10041;SDS011;5061;49.068;12.058;2022-11-15T04:13:35;6.83;;;5.20;;
10041;SDS011;5061;49.068;12.058;2022-11-15T04:16:56;6.10;;;4.87;;
10041;SDS011;5061;49.068;12.058;2022-11-15T04:20:27;6.87;;;4.90;;
10041;SDS011;5061;49.068;12.058;2022-11-15T04:24:08;5.90;;;4.50;;
10041;SDS011;5061;49.068;12.058;2022-11-15T04:27:37;3.83;;;3.23;;
10041;SDS011;5061;49.068;12.058;2022-11-15T04:30:58;4.30;;;3.60;;
10041;SDS011;5061;49.068;12.058;2022-11-15T04:34:18;4.90;;;3.60;;
10041;SDS011;5061;49.068;12.058;2022-11-15T04:37:39;7.07;;;4.63;;
10041;SDS011;5061;49.068;12.058;2022-11-15T04:41:00;7.07;;;4.30;;
10041;SDS011;5061;49.068;12.058;2022-11-15T04:44:20;4.73;;;3.50;;
10041;SDS011;5061;49.068;12.058;2022-11-15T04:47:44;5.30;;;3.90;;
10041;SDS011;5061;49.068;12.058;2022-11-15T04:51:05;4.97;;;3.90;;
10041;SDS011;5061;49.068;12.058;2022-11-15T04:54:27;5.43;;;4.50;;
10041;SDS011;5061;49.068;12.058;2022-11-15T04:57:54;6.83;;;5.17;;
10041;SDS011;5061;49.068;12.058;2022-11-15T05:01:18;6.10;;;4.47;;
10041;SDS011;5061;49.068;12.058;2022-11-15T05:04:39;8.03;;;5.30;;
10041;SDS011;5061;49.068;12.058;2022-11-15T05:07:59;7.70;;;4.73;;
10041;SDS011;5061;49.068;12.058;2022-11-15T05:11:20;8.83;;;5.73;;
10041;SDS011;5061;49.068;12.058;2022-11-15T05:14:41;9.17;;;5.17;;
10041;SDS011;5061;49.068;12.058;2022-11-15T05:18:02;6.80;;;4.30;;
10041;SDS011;5061;49.068;12.058;2022-11-15T05:21:23;8.73;;;4.73;;
10041;SDS011;5061;49.068;12.058;2022-11-15T05:24:43;6.27;;;4.40;;
10041;SDS011;5061;49.068;12.058;2022-11-15T05:28:04;6.87;;;4.80;;
10041;SDS011;5061;49.068;12.058;2022-11-15T05:31:25;8.60;;;5.30;;
10041;SDS011;5061;49.068;12.058;2022-11-15T05:34:46;8.03;;;5.60;;
10041;SDS011;5061;49.068;12.058;2022-11-15T05:38:07;8.23;;;5.40;;
10041;SDS011;5061;49.068;12.058;2022-11-15T05:41:48;9.73;;;5.87;;
10041;SDS011;5061;49.068;12.058;2022-11-15T05:45:13;8.00;;;5.60;;
10041;SDS011;5061;49.068;12.058;2022-11-15T05:48:34;6.10;;;4.20;;
10041;SDS011;5061;49.068;12.058;2022-11-15T05:51:57;6.33;;;4.60;;
10041;SDS011;5061;49.068;12.058;2022-11-15T05:55:18;5.67;;;4.63;;
10041;SDS011;5061;49.068;12.058;2022-11-15T05:58:39;4.00;;;2.90;;
10041;SDS011;5061;49.068;12.058;2022-11-15T06:01:59;7.40;;;4.50;;
10041;SDS011;5061;49.068;12.058;2022-11-15T06:05:20;8.00;;;5.20;;
10041;SDS011;5061;49.068;12.058;2022-11-15T06:08:41;7.80;;;5.10;;
10041;SDS011;5061;49.068;12.058;2022-11-15T06:12:01;5.73;;;4.23;;
10041;SDS011;5061;49.068;12.058;2022-11-15T06:15:22;6.40;;;4.47;;
10041;SDS011;5061;49.068;12.058;2022-11-15T06:18:43;8.17;;;5.30;;
10041;SDS011;5061;49.068;12.058;2022-11-15T06:22:03;7.70;;;5.10;;
10041;SDS011;5061;49.068;12.058;2022-11-15T06:25:24;7.87;;;5.50;;
10041;SDS011;5061;49.068;12.058;2022-11-15T06:28:45;8.00;;;5.50;;
10041;SDS011;5061;49.068;12.058;2022-11-15T06:32:05;6.50;;;4.70;;
10041;SDS011;5061;49.068;12.058;2022-11-15T06:35:26;6.30;;;4.53;;
10041;SDS011;5061;49.068;12.058;2022-11-15T06:38:47;6.90;;;4.60;;
10041;SDS011;5061;49.068;12.058;2022-11-15T06:42:08;5.03;;;3.70;;
10041;SDS011;5061;49.068;12.058;2022-11-15T06:45:29;6.60;;;4.37;;
10041;SDS011;5061;49.068;12.058;2022-11-15T06:48:50;6.10;;;4.50;;
10041;SDS011;5061;49.068;12.058;2022-11-15T06:52:12;6.03;;;3.90;;
10041;SDS011;5061;49.068;12.058;2022-11-15T06:55:32;5.20;;;4.07;;
10041;SDS011;5061;49.068;12.058;2022-11-15T06:58:53;10.17;;;6.30;;
10041;SDS011;5061;49.068;12.058;2022-11-15T07:02:13;6.63;;;5.00;;
10041;SDS011;5061;49.068;12.058;2022-11-15T07:05:34;10.97;;;5.80;;
10041;SDS011;5061;49.068;12.058;2022-11-15T07:08:55;6.43;;;4.60;;
10041;SDS011;5061;49.068;12.058;2022-11-15T07:12:16;6.90;;;4.50;;
10041;SDS011;5061;49.068;12.058;2022-11-15T07:15:36;8.53;;;4.57;;
10041;SDS011;5061;49.068;12.058;2022-11-15T07:18:57;5.30;;;4.47;;
10041;SDS011;5061;49.068;12.058;2022-11-15T07:22:18;7.20;;;4.37;;
10041;SDS011;5061;49.068;12.058;2022-11-15T07:25:38;5.90;;;4.60;;
10041;SDS011;5061;49.068;12.058;2022-11-15T07:28:59;9.00;;;5.80;;
10041;SDS011;5061;49.068;12.058;2022-11-15T07:32:20;6.07;;;3.87;;
10041;SDS011;5061;49.068;12.058;2022-11-15T07:35:40;7.03;;;4.73;;
10041;SDS011;5061;49.068;12.058;2022-11-15T07:39:02;9.80;;;5.43;;
10041;SDS011;5061;49.068;12.058;2022-11-15T07:42:23;8.70;;;5.03;;
10041;SDS011;5061;49.068;12.058;2022-11-15T07:46:05;6.60;;;4.57;;
10041;SDS011;5061;49.068;12.058;2022-11-15T07:49:29;8.73;;;4.60;;
10041;SDS011;5061;49.068;12.058;2022-11-15T07:52:53;5.63;;;4.40;;
10041;SDS011;5061;49.068;12.058;2022-11-15T07:56:15;6.33;;;4.33;;
10041;SDS011;5061;49.068;12.058;2022-11-15T07:59:35;4.73;;;3.70;;
10041;SDS011;5061;49.068;12.058;2022-11-15T08:03:03;3.57;;;2.70;;
10041;SDS011;5061;49.068;12.058;2022-11-15T08:06:25;3.47;;;3.17;;
10041;SDS011;5061;49.068;12.058;2022-11-15T08:09:45;5.90;;;4.10;;
10041;SDS011;5061;49.068;12.058;2022-11-15T08:13:07;5.90;;;4.43;;
10041;SDS011;5061;49.068;12.058;2022-11-15T08:16:29;6.17;;;4.20;;
10041;SDS011;5061;49.068;12.058;2022-11-15T08:19:50;6.60;;;4.97;;
10041;SDS011;5061;49.068;12.058;2022-11-15T08:23:11;3.67;;;3.00;;
10041;SDS011;5061;49.068;12.058;2022-11-15T08:26:32;5.80;;;4.10;;
10041;SDS011;5061;49.068;12.058;2022-11-15T08:29:53;3.47;;;2.87;;
10041;SDS011;5061;49.068;12.058;2022-11-15T08:33:14;4.27;;;3.23;;
10041;SDS011;5061;49.068;12.058;2022-11-15T08:36:35;8.70;;;6.00;;
10041;SDS011;5061;49.068;12.058;2022-11-15T08:39:55;6.37;;;4.33;;
10041;SDS011;5061;49.068;12.058;2022-11-15T08:43:16;6.53;;;4.17;;
10041;SDS011;5061;49.068;12.058;2022-11-15T08:46:36;5.60;;;4.20;;
10041;SDS011;5061;49.068;12.058;2022-11-15T08:49:57;4.30;;;3.90;;
10041;SDS011;5061;49.068;12.058;2022-11-15T08:53:18;5.50;;;4.60;;
10041;SDS011;5061;49.068;12.058;2022-11-15T08:56:38;7.37;;;5.27;;
10041;SDS011;5061;49.068;12.058;2022-11-15T08:59:59;6.50;;;4.20;;
10041;SDS011;5061;49.068;12.058;2022-11-15T09:03:20;7.53;;;5.10;;
10041;SDS011;5061;49.068;12.058;2022-11-15T09:06:40;7.70;;;3.80;;
10041;SDS011;5061;49.068;12.058;2022-11-15T09:10:01;3.67;;;3.00;;
10041;SDS011;5061;49.068;12.058;2022-11-15T09:13:22;4.90;;;3.40;;
10041;SDS011;5061;49.068;12.058;2022-11-15T09:16:43;4.53;;;3.10;;
10041;SDS011;5061;49.068;12.058;2022-11-15T09:20:04;4.17;;;3.03;;
10041;SDS011;5061;49.068;12.058;2022-11-15T09:23:25;3.53;;;3.00;;
10041;SDS011;5061;49.068;12.058;2022-11-15T09:26:46;3.83;;;3.00;;
10041;SDS011;5061;49.068;12.058;2022-11-15T09:30:09;3.83;;;3.03;;
10041;SDS011;5061;49.068;12.058;2022-11-15T09:33:30;4.50;;;2.90;;
10041;SDS011;5061;49.068;12.058;2022-11-15T09:36:51;3.10;;;2.80;;
10041;SDS011;5061;49.068;12.058;2022-11-15T09:40:13;3.50;;;2.90;;
10041;SDS011;5061;49.068;12.058;2022-11-15T09:43:49;3.07;;;2.10;;
10041;SDS011;5061;49.068;12.058;2022-11-15T09:54:11;2.17;;;1.97;;
10041;SDS011;5061;49.068;12.058;2022-11-15T09:57:57;3.80;;;2.83;;
10041;SDS011;5061;49.068;12.058;2022-11-15T10:05:16;3.30;;;2.73;;
10041;SDS011;5061;49.068;12.058;2022-11-15T10:08:48;2.70;;;2.27;;
10041;SDS011;5061;49.068;12.058;2022-11-15T10:12:23;2.67;;;2.43;;
10041;SDS011;5061;49.068;12.058;2022-11-15T10:15:45;4.33;;;3.17;;
10041;SDS011;5061;49.068;12.058;2022-11-15T10:19:26;4.30;;;3.33;;
10041;SDS011;5061;49.068;12.058;2022-11-15T10:22:55;6.30;;;4.80;;
10041;SDS011;5061;49.068;12.058;2022-11-15T10:26:19;8.40;;;5.00;;
10041;SDS011;5061;49.068;12.058;2022-11-15T10:29:45;13.50;;;5.40;;
10041;SDS011;5061;49.068;12.058;2022-11-15T10:33:49;10.67;;;5.77;;
10041;SDS011;5061;49.068;12.058;2022-11-15T10:40:22;9.53;;;5.47;;
10041;SDS011;5061;49.068;12.058;2022-11-15T10:43:44;7.60;;;5.27;;
10041;SDS011;5061;49.068;12.058;2022-11-15T10:47:25;8.93;;;6.20;;
10041;SDS011;5061;49.068;12.058;2022-11-15T10:50:48;10.47;;;6.40;;
10041;SDS011;5061;49.068;12.058;2022-11-15T10:54:11;9.97;;;6.13;;
10041;SDS011;5061;49.068;12.058;2022-11-15T10:57:36;7.20;;;5.50;;
10041;SDS011;5061;49.068;12.058;2022-11-15T11:01:19;6.13;;;4.77;;
10041;SDS011;5061;49.068;12.058;2022-11-15T11:04:53;5.77;;;4.40;;
10041;SDS011;5061;49.068;12.058;2022-11-15T11:15:10;5.87;;;4.20;;
10041;SDS011;5061;49.068;12.058;2022-11-15T11:18:35;4.70;;;3.77;;
10041;SDS011;5061;49.068;12.058;2022-11-15T11:22:21;3.47;;;2.90;;
10041;SDS011;5061;49.068;12.058;2022-11-15T11:33:10;2.47;;;2.27;;
10041;SDS011;5061;49.068;12.058;2022-11-15T11:40:35;5.60;;;4.23;;
10041;SDS011;5061;49.068;12.058;2022-11-15T11:47:46;3.83;;;3.33;;
10041;SDS011;5061;49.068;12.058;2022-11-15T11:54:44;2.17;;;1.97;;
10041;SDS011;5061;49.068;12.058;2022-11-15T12:01:52;3.50;;;2.97;;
10041;SDS011;5061;49.068;12.058;2022-11-15T12:05:16;3.23;;;2.57;;
10041;SDS011;5061;49.068;12.058;2022-11-15T12:16:06;3.87;;;2.80;;
10041;SDS011;5061;49.068;12.058;2022-11-15T12:19:39;2.70;;;2.23;;
10041;SDS011;5061;49.068;12.058;2022-11-15T12:23:13;3.30;;;2.30;;
10041;SDS011;5061;49.068;12.058;2022-11-15T12:26:48;2.23;;;1.83;;
10041;SDS011;5061;49.068;12.058;2022-11-15T12:30:23;3.40;;;2.53;;
10041;SDS011;5061;49.068;12.058;2022-11-15T12:34:01;2.10;;;1.73;;
10041;SDS011;5061;49.068;12.058;2022-11-15T12:41:13;2.07;;;1.80;;
10041;SDS011;5061;49.068;12.058;2022-11-15T12:55:29;1.60;;;1.50;;
10041;SDS011;5061;49.068;12.058;2022-11-15T12:58:53;1.50;;;1.40;;
10041;SDS011;5061;49.068;12.058;2022-11-15T13:02:32;1.97;;;1.67;;
10041;SDS011;5061;49.068;12.058;2022-11-15T13:06:05;2.30;;;1.90;;
10041;SDS011;5061;49.068;12.058;2022-11-15T13:12:53;1.70;;;1.60;;
10041;SDS011;5061;49.068;12.058;2022-11-15T13:16:20;1.50;;;1.40;;
10041;SDS011;5061;49.068;12.058;2022-11-15T13:19:40;1.83;;;1.63;;
10041;SDS011;5061;49.068;12.058;2022-11-15T13:26:30;1.30;;;1.10;;
10041;SDS011;5061;49.068;12.058;2022-11-15T13:29:51;2.07;;;1.60;;
10041;SDS011;5061;49.068;12.058;2022-11-15T13:33:20;1.10;;;1.00;;
10041;SDS011;5061;49.068;12.058;2022-11-15T13:36:48;1.30;;;1.20;;
10041;SDS011;5061;49.068;12.058;2022-11-15T13:40:26;1.63;;;1.40;;
10041;SDS011;5061;49.068;12.058;2022-11-15T13:43:50;3.17;;;2.80;;
10041;SDS011;5061;49.068;12.058;2022-11-15T13:47:13;2.80;;;2.60;;
10041;SDS011;5061;49.068;12.058;2022-11-15T13:50:35;2.70;;;2.23;;
10041;SDS011;5061;49.068;12.058;2022-11-15T13:53:59;2.57;;;2.10;;
10041;SDS011;5061;49.068;12.058;2022-11-15T13:57:24;1.90;;;1.80;;
10041;SDS011;5061;49.068;12.058;2022-11-15T14:00:48;1.60;;;1.50;;
10041;SDS011;5061;49.068;12.058;2022-11-15T14:04:23;2.10;;;1.67;;
10041;SDS011;5061;49.068;12.058;2022-11-15T14:07:53;1.27;;;1.10;;
10041;SDS011;5061;49.068;12.058;2022-11-15T14:11:20;1.40;;;1.30;;
10041;SDS011;5061;49.068;12.058;2022-11-15T14:14:44;1.60;;;1.20;;
10041;SDS011;5061;49.068;12.058;2022-11-15T14:18:05;1.20;;;0.90;;
10041;SDS011;5061;49.068;12.058;2022-11-15T14:21:26;1.23;;;1.13;;
10041;SDS011;5061;49.068;12.058;2022-11-15T14:28:38;1.30;;;1.20;;
10041;SDS011;5061;49.068;12.058;2022-11-15T14:32:12;2.17;;;1.83;;
10041;SDS011;5061;49.068;12.058;2022-11-15T14:35:41;2.00;;;1.80;;
10041;SDS011;5061;49.068;12.058;2022-11-15T14:39:01;2.53;;;2.33;;
10041;SDS011;5061;49.068;12.058;2022-11-15T14:42:25;1.70;;;1.60;;
10041;SDS011;5061;49.068;12.058;2022-11-15T14:45:45;2.20;;;1.97;;
10041;SDS011;5061;49.068;12.058;2022-11-15T14:49:06;2.17;;;1.77;;
10041;SDS011;5061;49.068;12.058;2022-11-15T14:52:30;1.83;;;1.63;;
10041;SDS011;5061;49.068;12.058;2022-11-15T14:55:55;1.97;;;1.77;;
10041;SDS011;5061;49.068;12.058;2022-11-15T14:59:16;1.70;;;1.60;;
10041;SDS011;5061;49.068;12.058;2022-11-15T15:02:36;1.80;;;1.70;;
10041;SDS011;5061;49.068;12.058;2022-11-15T15:05:57;1.80;;;1.70;;
10041;SDS011;5061;49.068;12.058;2022-11-15T15:09:18;1.70;;;1.60;;
10041;SDS011;5061;49.068;12.058;2022-11-15T15:12:38;2.47;;;1.67;;
10041;SDS011;5061;49.068;12.058;2022-11-15T15:15:59;2.10;;;1.83;;
10041;SDS011;5061;49.068;12.058;2022-11-15T15:19:20;3.10;;;2.80;;
10041;SDS011;5061;49.068;12.058;2022-11-15T15:22:40;5.00;;;3.53;;
10041;SDS011;5061;49.068;12.058;2022-11-15T15:26:01;7.17;;;5.73;;
10041;SDS011;5061;49.068;12.058;2022-11-15T15:29:21;6.00;;;4.57;;
10041;SDS011;5061;49.068;12.058;2022-11-15T15:32:42;7.33;;;5.17;;
10041;SDS011;5061;49.068;12.058;2022-11-15T15:36:03;5.83;;;4.60;;
10041;SDS011;5061;49.068;12.058;2022-11-15T15:39:24;6.60;;;5.17;;
10041;SDS011;5061;49.068;12.058;2022-11-15T15:42:46;6.50;;;4.77;;
10041;SDS011;5061;49.068;12.058;2022-11-15T15:46:11;4.17;;;3.67;;
10041;SDS011;5061;49.068;12.058;2022-11-15T15:49:35;5.00;;;3.80;;
10041;SDS011;5061;49.068;12.058;2022-11-15T15:52:57;7.27;;;4.63;;
10041;SDS011;5061;49.068;12.058;2022-11-15T15:56:20;6.27;;;4.57;;
10041;SDS011;5061;49.068;12.058;2022-11-15T15:59:43;5.10;;;3.83;;
10041;SDS011;5061;49.068;12.058;2022-11-15T16:03:07;6.77;;;4.37;;
10041;SDS011;5061;49.068;12.058;2022-11-15T16:06:35;4.20;;;3.33;;
10041;SDS011;5061;49.068;12.058;2022-11-15T16:09:59;5.77;;;3.97;;
10041;SDS011;5061;49.068;12.058;2022-11-15T16:13:19;4.13;;;3.10;;
10041;SDS011;5061;49.068;12.058;2022-11-15T16:16:40;2.87;;;2.57;;
10041;SDS011;5061;49.068;12.058;2022-11-15T16:20:01;4.13;;;2.77;;
10041;SDS011;5061;49.068;12.058;2022-11-15T16:23:22;4.57;;;3.43;;
10041;SDS011;5061;49.068;12.058;2022-11-15T16:26:44;5.30;;;4.07;;
10041;SDS011;5061;49.068;12.058;2022-11-15T16:30:07;6.33;;;5.10;;
10041;SDS011;5061;49.068;12.058;2022-11-15T16:33:32;7.60;;;5.70;;
10041;SDS011;5061;49.068;12.058;2022-11-15T16:36:53;6.87;;;4.70;;
10041;SDS011;5061;49.068;12.058;2022-11-15T16:40:23;6.47;;;4.70;;
10041;SDS011;5061;49.068;12.058;2022-11-15T16:43:50;4.60;;;3.97;;
10041;SDS011;5061;49.068;12.058;2022-11-15T16:47:17;5.13;;;4.20;;
10041;SDS011;5061;49.068;12.058;2022-11-15T16:50:39;3.77;;;3.30;;
10041;SDS011;5061;49.068;12.058;2022-11-15T16:54:01;5.00;;;4.03;;
10041;SDS011;5061;49.068;12.058;2022-11-15T16:57:22;4.97;;;3.90;;
10041;SDS011;5061;49.068;12.058;2022-11-15T17:00:42;5.93;;;4.37;;
10041;SDS011;5061;49.068;12.058;2022-11-15T17:04:03;6.47;;;4.20;;
10041;SDS011;5061;49.068;12.058;2022-11-15T17:07:32;6.03;;;4.30;;
10041;SDS011;5061;49.068;12.058;2022-11-15T17:10:53;5.10;;;3.97;;
10041;SDS011;5061;49.068;12.058;2022-11-15T17:14:14;4.23;;;3.70;;
10041;SDS011;5061;49.068;12.058;2022-11-15T17:17:36;3.10;;;2.57;;
10041;SDS011;5061;49.068;12.058;2022-11-15T17:20:57;4.73;;;2.80;;
10041;SDS011;5061;49.068;12.058;2022-11-15T17:24:22;4.97;;;3.40;;
10041;SDS011;5061;49.068;12.058;2022-11-15T17:27:42;4.50;;;2.90;;
10041;SDS011;5061;49.068;12.058;2022-11-15T17:31:07;2.70;;;2.33;;
10041;SDS011;5061;49.068;12.058;2022-11-15T17:34:30;3.93;;;3.00;;
10041;SDS011;5061;49.068;12.058;2022-11-15T17:37:51;2.77;;;2.47;;
10041;SDS011;5061;49.068;12.058;2022-11-15T17:41:15;4.33;;;3.37;;
10041;SDS011;5061;49.068;12.058;2022-11-15T17:44:35;5.07;;;3.67;;
10041;SDS011;5061;49.068;12.058;2022-11-15T17:47:56;4.20;;;3.30;;
10041;SDS011;5061;49.068;12.058;2022-11-15T17:51:17;4.40;;;3.20;;
10041;SDS011;5061;49.068;12.058;2022-11-15T17:54:38;4.07;;;2.80;;
10041;SDS011;5061;49.068;12.058;2022-11-15T17:57:58;3.93;;;3.27;;
10041;SDS011;5061;49.068;12.058;2022-11-15T18:01:22;3.80;;;3.20;;
10041;SDS011;5061;49.068;12.058;2022-11-15T18:04:43;4.33;;;3.37;;
10041;SDS011;5061;49.068;12.058;2022-11-15T18:08:04;3.83;;;2.97;;
10041;SDS011;5061;49.068;12.058;2022-11-15T18:11:42;3.50;;;2.80;;
10041;SDS011;5061;49.068;12.058;2022-11-15T18:15:07;3.13;;;2.30;;
10041;SDS011;5061;49.068;12.058;2022-11-15T18:18:32;6.60;;;3.90;;
10041;SDS011;5061;49.068;12.058;2022-11-15T18:21:54;3.27;;;2.80;;
10041;SDS011;5061;49.068;12.058;2022-11-15T18:25:18;3.43;;;2.90;;
10041;SDS011;5061;49.068;12.058;2022-11-15T18:28:42;5.03;;;3.53;;
10041;SDS011;5061;49.068;12.058;2022-11-15T18:32:04;3.87;;;2.83;;
10041;SDS011;5061;49.068;12.058;2022-11-15T18:35:30;3.00;;;2.53;;
10041;SDS011;5061;49.068;12.058;2022-11-15T18:38:54;3.77;;;2.83;;
10041;SDS011;5061;49.068;12.058;2022-11-15T18:42:22;3.40;;;2.50;;
10041;SDS011;5061;49.068;12.058;2022-11-15T18:45:43;4.23;;;2.40;;
10041;SDS011;5061;49.068;12.058;2022-11-15T18:49:03;4.77;;;3.63;;
10041;SDS011;5061;49.068;12.058;2022-11-15T18:52:26;6.20;;;4.60;;
10041;SDS011;5061;49.068;12.058;2022-11-15T18:55:47;10.30;;;6.60;;
10041;SDS011;5061;49.068;12.058;2022-11-15T18:59:07;8.53;;;4.83;;
10041;SDS011;5061;49.068;12.058;2022-11-15T19:02:28;9.80;;;6.17;;
10041;SDS011;5061;49.068;12.058;2022-11-15T19:05:48;7.13;;;5.20;;
10041;SDS011;5061;49.068;12.058;2022-11-15T19:09:10;10.40;;;6.00;;
10041;SDS011;5061;49.068;12.058;2022-11-15T19:12:35;6.30;;;4.30;;
10041;SDS011;5061;49.068;12.058;2022-11-15T19:15:59;4.17;;;3.40;;
10041;SDS011;5061;49.068;12.058;2022-11-15T19:19:24;4.83;;;3.90;;
10041;SDS011;5061;49.068;12.058;2022-11-15T19:22:47;5.03;;;3.83;;
10041;SDS011;5061;49.068;12.058;2022-11-15T19:26:12;3.60;;;3.07;;
10041;SDS011;5061;49.068;12.058;2022-11-15T19:29:34;4.40;;;3.53;;
10041;SDS011;5061;49.068;12.058;2022-11-15T19:32:55;5.47;;;3.90;;
10041;SDS011;5061;49.068;12.058;2022-11-15T19:36:38;6.87;;;4.57;;
10041;SDS011;5061;49.068;12.058;2022-11-15T19:39:58;3.80;;;3.33;;
10041;SDS011;5061;49.068;12.058;2022-11-15T19:43:18;6.00;;;4.10;;
10041;SDS011;5061;49.068;12.058;2022-11-15T19:46:39;4.07;;;3.37;;
10041;SDS011;5061;49.068;12.058;2022-11-15T19:50:00;6.13;;;4.37;;
10041;SDS011;5061;49.068;12.058;2022-11-15T19:53:22;5.57;;;4.33;;
10041;SDS011;5061;49.068;12.058;2022-11-15T19:56:43;4.40;;;3.77;;
10041;SDS011;5061;49.068;12.058;2022-11-15T20:00:04;5.60;;;4.20;;
10041;SDS011;5061;49.068;12.058;2022-11-15T20:03:25;5.47;;;4.20;;
10041;SDS011;5061;49.068;12.058;2022-11-15T20:06:46;5.30;;;3.40;;
10041;SDS011;5061;49.068;12.058;2022-11-15T20:10:06;6.93;;;5.00;;
10041;SDS011;5061;49.068;12.058;2022-11-15T20:13:28;8.60;;;4.90;;
10041;SDS011;5061;49.068;12.058;2022-11-15T20:16:48;7.70;;;5.10;;
10041;SDS011;5061;49.068;12.058;2022-11-15T20:20:09;8.97;;;5.50;;
10041;SDS011;5061;49.068;12.058;2022-11-15T20:23:30;8.10;;;5.10;;
10041;SDS011;5061;49.068;12.058;2022-11-15T20:26:51;8.13;;;5.77;;
10041;SDS011;5061;49.068;12.058;2022-11-15T20:30:12;12.50;;;5.80;;
10041;SDS011;5061;49.068;12.058;2022-11-15T20:33:33;7.17;;;5.23;;
10041;SDS011;5061;49.068;12.058;2022-11-15T20:36:54;9.37;;;6.40;;
10041;SDS011;5061;49.068;12.058;2022-11-15T20:40:14;9.03;;;4.97;;
10041;SDS011;5061;49.068;12.058;2022-11-15T20:43:35;9.80;;;6.43;;
10041;SDS011;5061;49.068;12.058;2022-11-15T20:46:56;6.90;;;4.97;;
10041;SDS011;5061;49.068;12.058;2022-11-15T20:50:17;7.03;;;5.23;;
10041;SDS011;5061;49.068;12.058;2022-11-15T20:53:38;7.10;;;4.60;;
10041;SDS011;5061;49.068;12.058;2022-11-15T20:56:59;7.20;;;4.53;;
10041;SDS011;5061;49.068;12.058;2022-11-15T21:00:20;6.77;;;5.10;;
10041;SDS011;5061;49.068;12.058;2022-11-15T21:03:43;9.53;;;5.47;;
10041;SDS011;5061;49.068;12.058;2022-11-15T21:07:04;8.37;;;5.03;;
10041;SDS011;5061;49.068;12.058;2022-11-15T21:10:25;6.53;;;4.50;;
10041;SDS011;5061;49.068;12.058;2022-11-15T21:14:05;7.20;;;5.13;;
10041;SDS011;5061;49.068;12.058;2022-11-15T21:17:26;7.13;;;5.27;;
10041;SDS011;5061;49.068;12.058;2022-11-15T21:20:47;8.37;;;5.13;;
10041;SDS011;5061;49.068;12.058;2022-11-15T21:24:08;11.07;;;6.00;;
10041;SDS011;5061;49.068;12.058;2022-11-15T21:27:29;7.10;;;4.80;;
10041;SDS011;5061;49.068;12.058;2022-11-15T21:30:56;10.70;;;6.07;;
10041;SDS011;5061;49.068;12.058;2022-11-15T21:34:18;11.10;;;6.87;;
10041;SDS011;5061;49.068;12.058;2022-11-15T21:37:39;9.13;;;5.83;;
10041;SDS011;5061;49.068;12.058;2022-11-15T21:41:03;6.87;;;4.77;;
10041;SDS011;5061;49.068;12.058;2022-11-15T21:44:24;6.07;;;3.53;;
10041;SDS011;5061;49.068;12.058;2022-11-15T21:47:45;4.50;;;3.50;;
10041;SDS011;5061;49.068;12.058;2022-11-15T21:51:06;5.70;;;3.83;;
10041;SDS011;5061;49.068;12.058;2022-11-15T21:54:29;5.63;;;3.70;;
10041;SDS011;5061;49.068;12.058;2022-11-15T21:57:49;4.50;;;3.60;;
10041;SDS011;5061;49.068;12.058;2022-11-15T22:01:10;8.67;;;4.97;;
10041;SDS011;5061;49.068;12.058;2022-11-15T22:04:49;6.50;;;4.60;;
10041;SDS011;5061;49.068;12.058;2022-11-15T22:08:10;6.93;;;3.80;;
10041;SDS011;5061;49.068;12.058;2022-11-15T22:11:31;4.33;;;3.10;;
10041;SDS011;5061;49.068;12.058;2022-11-15T22:14:52;6.40;;;3.83;;
10041;SDS011;5061;49.068;12.058;2022-11-15T22:18:12;4.87;;;3.60;;
10041;SDS011;5061;49.068;12.058;2022-11-15T22:21:33;6.20;;;4.03;;